Time;durP1;ratioP1;P1;durP2;ratioP2;P2;SDS_P1;SDS_P2;PMS_P1;PMS_P2;Temp;Humidity;BMP_temperature;BMP_pressure;BME280_temperature;BME280_humidity;BME280_pressure;Samples;Min_cycle;Max_cycle;Signal;HPM_P1;HPM_P2
2022/07/09 00:00:33;;;;;;;3.60;2.10;;;18.10;99.90;;;;;;4970937;28;20035;-92
2022/07/09 00:02:58;;;;;;;6.13;2.30;;;18.10;99.90;;;;;;4970702;28;20033;-84
2022/07/09 00:05:24;;;;;;;5.78;2.35;;;18.00;99.90;;;;;;4970792;28;20030;-83
2022/07/09 00:07:50;;;;;;;5.97;2.08;;;18.00;99.90;;;;;;4969572;28;20027;-83
2022/07/09 00:10:17;;;;;;;6.45;2.45;;;17.90;99.90;;;;;;4971299;28;20521;-83
2022/07/09 00:12:42;;;;;;;6.82;2.38;;;17.90;99.90;;;;;;4971421;28;20074;-83
2022/07/09 00:15:08;;;;;;;5.00;2.60;;;17.90;99.90;;;;;;4970515;28;20015;-83
2022/07/09 00:17:34;;;;;;;5.10;2.40;;;17.90;99.90;;;;;;4970452;28;20038;-86
2022/07/09 00:20:02;;;;;;;6.90;2.60;;;18.00;99.90;;;;;;4970652;28;20027;-84
2022/07/09 00:22:27;;;;;;;6.03;2.63;;;18.00;99.90;;;;;;4970653;28;20471;-83
2022/07/09 00:24:53;;;;;;;5.72;2.47;;;18.00;99.90;;;;;;4970402;28;20094;-93
2022/07/09 00:27:19;;;;;;;4.55;2.70;;;17.90;99.90;;;;;;4970135;28;20058;-83
2022/07/09 00:29:44;;;;;;;6.78;2.70;;;17.80;99.90;;;;;;4969918;28;20027;-83
2022/07/09 00:32:10;;;;;;;6.38;2.70;;;17.80;99.90;;;;;;4970450;28;20034;-83
2022/07/09 00:34:36;;;;;;;7.65;2.90;;;17.80;99.90;;;;;;4970434;28;20031;-83
2022/07/09 00:37:02;;;;;;;6.43;2.67;;;;;;;;;;4970499;28;20049;-83
2022/07/09 00:39:28;;;;;;;4.18;2.80;;;;;;;;;;4970256;28;20101;-84
2022/07/09 00:42:07;;;;;;;6.03;3.00;;;17.80;99.90;;;;;;4970342;28;20498;-84
2022/07/09 00:44:33;;;;;;;7.90;2.92;;;17.70;99.90;;;;;;4970066;28;20063;-84
2022/07/09 00:46:59;;;;;;;4.45;2.90;;;17.70;99.90;;;;;;4970126;28;20440;-83
2022/07/09 00:49:31;;;;;;;6.78;2.85;;;17.70;99.90;;;;;;4970142;28;20078;-84
2022/07/09 00:51:58;;;;;;;7.28;2.85;;;17.60;99.90;;;;;;4970124;28;20420;-83
2022/07/09 00:54:24;;;;;;;8.80;3.35;;;17.70;99.90;;;;;;4970201;28;20517;-83
2022/07/09 00:56:52;;;;;;;5.28;3.10;;;17.60;99.90;;;;;;4970192;28;20502;-84
2022/07/09 00:59:19;;;;;;;5.78;3.38;;;17.60;99.90;;;;;;4970899;28;20058;-94
2022/07/09 01:01:45;;;;;;;6.82;3.33;;;17.50;99.90;;;;;;4970954;28;20027;-85
2022/07/09 01:04:11;;;;;;;12.70;3.72;;;17.50;99.90;;;;;;4970198;28;20027;-83
2022/07/09 01:06:36;;;;;;;8.93;3.78;;;17.40;99.90;;;;;;4970128;28;20104;-84
2022/07/09 01:09:03;;;;;;;7.70;3.70;;;17.30;99.90;;;;;;4971606;28;20043;-84
2022/07/09 01:11:30;;;;;;;8.02;3.47;;;17.20;99.90;;;;;;4973700;28;20018;-83
2022/07/09 01:13:56;;;;;;;8.48;3.72;;;;;;;;;;4973701;28;20027;-83
2022/07/09 01:16:23;;;;;;;11.00;3.65;;;17.40;99.90;;;;;;4973582;28;20026;-84
2022/07/09 01:18:49;;;;;;;7.38;3.80;;;17.30;99.90;;;;;;4974422;28;20110;-84
2022/07/09 01:21:15;;;;;;;12.80;4.00;;;17.30;99.90;;;;;;4973675;28;20061;-84
2022/07/09 01:23:41;;;;;;;7.05;3.85;;;17.20;99.90;;;;;;4973734;28;20031;-92
2022/07/09 01:26:07;;;;;;;9.38;3.70;;;17.30;99.90;;;;;;4973310;28;20039;-84
2022/07/09 01:28:33;;;;;;;7.88;3.65;;;17.20;99.90;;;;;;4973599;28;20573;-83
2022/07/09 01:30:59;;;;;;;4.90;3.53;;;17.30;99.90;;;;;;4973358;28;20027;-84
2022/07/09 01:33:25;;;;;;;5.53;3.60;;;17.40;99.90;;;;;;4973619;28;20023;-83
2022/07/09 01:35:51;;;;;;;6.30;3.70;;;17.30;99.90;;;;;;4974171;28;20027;-83
2022/07/09 01:38:17;;;;;;;5.65;3.70;;;17.20;99.90;;;;;;4974648;28;20029;-93
2022/07/09 01:40:43;;;;;;;7.55;4.05;;;17.10;99.90;;;;;;4973566;28;20030;-93
2022/07/09 01:43:08;;;;;;;8.10;4.10;;;17.20;99.90;;;;;;4973674;28;20077;-92
2022/07/09 01:45:34;;;;;;;8.77;4.45;;;;;;;;;;4973379;28;20030;-83
2022/07/09 01:48:00;;;;;;;5.22;3.95;;;17.10;99.90;;;;;;4987897;28;20030;-84
2022/07/09 01:50:26;;;;;;;6.90;3.97;;;17.10;99.90;;;;;;4972942;28;20408;-83
2022/07/09 01:52:52;;;;;;;7.97;4.07;;;17.10;99.90;;;;;;4973942;28;20121;-94
2022/07/09 01:55:17;;;;;;;7.20;4.32;;;17.10;99.90;;;;;;4973839;28;20054;-83
2022/07/09 01:57:43;;;;;;;6.10;4.55;;;17.10;99.90;;;;;;4972872;28;20057;-83
2022/07/09 02:00:09;;;;;;;11.65;5.13;;;17.00;99.90;;;;;;4972860;28;20494;-83
2022/07/09 02:02:35;;;;;;;10.00;4.80;;;16.90;99.90;;;;;;4973054;28;20646;-85
2022/07/09 02:05:00;;;;;;;7.68;4.38;;;16.80;99.90;;;;;;4972717;28;20126;-92
2022/07/09 02:07:26;;;;;;;8.00;4.38;;;16.90;99.90;;;;;;4972686;28;20027;-83
2022/07/09 02:09:52;;;;;;;6.70;4.78;;;;;;;;;;4973594;28;20399;-83
2022/07/09 02:12:18;;;;;;;9.38;5.07;;;16.80;99.90;;;;;;4973278;28;20026;-83
2022/07/09 02:14:44;;;;;;;8.95;5.50;;;16.70;99.90;;;;;;4987485;28;20022;-83
2022/07/09 02:17:10;;;;;;;10.48;5.00;;;16.60;99.90;;;;;;4972493;28;20030;-83
2022/07/09 02:19:36;;;;;;;8.65;4.70;;;16.60;99.90;;;;;;4971872;28;20105;-83
2022/07/09 02:22:01;;;;;;;8.07;5.45;;;16.70;99.90;;;;;;4971804;28;20122;-83
2022/07/09 02:24:28;;;;;;;7.18;5.10;;;16.60;99.90;;;;;;4971107;28;20122;-83
2022/07/09 02:26:54;;;;;;;8.52;4.80;;;16.60;99.90;;;;;;4972445;28;20521;-83
2022/07/09 02:29:19;;;;;;;8.98;6.10;;;16.50;99.90;;;;;;4973490;28;20031;-93
2022/07/09 02:31:45;;;;;;;10.93;5.10;;;16.60;99.90;;;;;;4972449;28;20109;-84
2022/07/09 02:34:10;;;;;;;8.70;5.28;;;16.60;99.90;;;;;;4972265;28;20105;-83
2022/07/09 02:36:36;;;;;;;10.05;5.38;;;16.60;99.90;;;;;;4972269;28;20029;-85
2022/07/09 02:39:02;;;;;;;9.65;4.80;;;16.60;99.90;;;;;;4972146;28;20097;-83
2022/07/09 02:41:27;;;;;;;9.05;5.43;;;16.60;99.90;;;;;;4972125;28;20431;-83
2022/07/09 02:43:53;;;;;;;8.30;5.30;;;16.60;99.90;;;;;;4972757;28;20022;-83
2022/07/09 02:46:19;;;;;;;6.25;4.57;;;16.70;99.90;;;;;;4972407;28;20038;-83
2022/07/09 02:48:44;;;;;;;7.75;4.82;;;16.70;99.90;;;;;;4972040;28;20055;-83
2022/07/09 02:51:10;;;;;;;7.05;4.80;;;16.70;99.90;;;;;;4970515;28;20034;-92
2022/07/09 02:53:36;;;;;;;7.35;4.80;;;16.70;99.90;;;;;;4971727;28;20372;-83
2022/07/09 02:56:01;;;;;;;9.90;4.85;;;16.70;99.90;;;;;;4971884;28;20026;-83
2022/07/09 02:58:27;;;;;;;7.65;4.70;;;;;;;;;;4971750;28;20098;-84
2022/07/09 03:00:53;;;;;;;7.47;4.82;;;;;;;;;;4987787;28;20399;-83
2022/07/09 03:03:19;;;;;;;7.80;4.45;;;16.60;99.90;;;;;;4971803;28;20606;-83
2022/07/09 03:05:45;;;;;;;6.68;4.50;;;16.60;99.90;;;;;;4972129;28;20366;-85
2022/07/09 03:08:10;;;;;;;5.10;4.53;;;16.60;99.90;;;;;;4971939;28;20391;-90
2022/07/09 03:10:37;;;;;;;6.60;4.57;;;;;;;;;;4971559;28;20061;-84
2022/07/09 03:13:02;;;;;;;6.28;4.35;;;16.60;99.90;;;;;;4971976;28;20023;-93
2022/07/09 03:15:28;;;;;;;6.43;4.63;;;16.60;99.90;;;;;;4971959;28;20029;-83
2022/07/09 03:17:53;;;;;;;5.72;4.40;;;16.60;99.90;;;;;;4972727;28;20033;-89
2022/07/09 03:20:19;;;;;;;8.40;4.35;;;16.60;99.90;;;;;;4971862;28;20114;-84
2022/07/09 03:22:45;;;;;;;7.63;4.50;;;16.60;99.90;;;;;;4971671;28;20066;-84
2022/07/09 03:25:11;;;;;;;6.55;4.70;;;;;;;;;;4971630;28;20049;-92
2022/07/09 03:27:36;;;;;;;7.45;4.68;;;16.60;99.90;;;;;;4971443;28;20034;-92
2022/07/09 03:30:04;;;;;;;5.70;4.25;;;16.50;99.90;;;;;;4971313;28;20027;-83
2022/07/09 03:32:30;;;;;;;8.80;4.55;;;;;;;;;;4971086;28;20026;-83
2022/07/09 03:34:55;;;;;;;6.03;4.28;;;16.50;99.90;;;;;;4971819;28;20387;-83
2022/07/09 03:37:21;;;;;;;6.43;4.65;;;;;;;;;;4971023;28;20029;-83
2022/07/09 03:39:48;;;;;;;7.18;4.25;;;16.40;99.90;;;;;;4970922;28;20259;-83
2022/07/09 03:42:14;;;;;;;6.47;4.10;;;16.30;99.90;;;;;;4971036;28;20535;-83
2022/07/09 03:44:40;;;;;;;8.18;4.20;;;16.30;99.90;;;;;;4970889;28;20042;-83
2022/07/09 03:47:06;;;;;;;5.50;4.30;;;16.30;99.90;;;;;;4969852;28;20031;-83
2022/07/09 03:49:32;;;;;;;5.15;4.13;;;16.30;99.90;;;;;;4970868;28;20031;-83
2022/07/09 03:51:58;;;;;;;4.75;4.00;;;16.20;99.90;;;;;;4971573;28;20026;-83
2022/07/09 03:54:24;;;;;;;6.38;4.50;;;16.10;99.90;;;;;;4971773;28;20139;-91
2022/07/09 03:56:50;;;;;;;6.55;4.88;;;16.10;99.90;;;;;;4971227;28;20062;-92
2022/07/09 03:59:16;;;;;;;7.18;4.93;;;16.00;99.90;;;;;;4971294;28;20026;-93
2022/07/09 04:01:42;;;;;;;7.40;4.90;;;16.00;99.90;;;;;;4971152;28;20054;-92
2022/07/09 04:04:08;;;;;;;6.47;4.53;;;16.00;99.90;;;;;;4970962;28;20027;-84
2022/07/09 04:06:34;;;;;;;5.43;4.13;;;16.10;99.90;;;;;;4970872;28;20392;-83
2022/07/09 04:09:04;;;;;;;7.25;4.63;;;16.00;99.90;;;;;;4970649;28;20045;-83
2022/07/09 04:11:30;;;;;;;5.13;4.50;;;16.00;99.90;;;;;;4970630;28;20070;-83
2022/07/09 04:13:56;;;;;;;8.73;4.82;;;;;;;;;;4971317;28;20414;-87
2022/07/09 04:16:22;;;;;;;4.60;4.13;;;16.00;99.90;;;;;;4970949;28;20019;-91
2022/07/09 04:18:48;;;;;;;8.55;4.07;;;16.00;99.90;;;;;;4971085;28;20027;-92
2022/07/09 04:21:14;;;;;;;6.72;4.45;;;;;;;;;;4969575;28;20034;-89
2022/07/09 04:23:39;;;;;;;6.50;4.55;;;15.80;99.90;;;;;;4971056;28;20035;-91
2022/07/09 04:26:05;;;;;;;9.48;3.83;;;15.80;99.90;;;;;;4970014;28;20043;-83
2022/07/09 04:28:30;;;;;;;5.68;4.40;;;15.70;99.90;;;;;;4970322;28;20023;-84
2022/07/09 04:30:56;;;;;;;5.95;4.32;;;15.60;99.90;;;;;;4986231;28;20065;-84
2022/07/09 04:33:22;;;;;;;6.03;4.40;;;15.60;99.90;;;;;;4970370;28;20416;-83
2022/07/09 04:35:47;;;;;;;7.57;4.88;;;15.60;99.90;;;;;;4970197;28;20038;-83
2022/07/09 04:38:13;;;;;;;6.07;4.72;;;15.70;99.90;;;;;;4970250;28;20084;-84
2022/07/09 04:40:39;;;;;;;7.15;5.15;;;15.70;99.90;;;;;;4970295;28;20039;-84
2022/07/09 04:43:06;;;;;;;7.22;4.72;;;15.80;99.90;;;;;;4970232;28;20487;-84
2022/07/09 04:45:32;;;;;;;6.95;4.85;;;15.80;99.90;;;;;;4988978;28;20045;-84
2022/07/09 04:48:01;;;;;;;7.15;5.00;;;15.70;99.90;;;;;;4989902;28;20019;-84
2022/07/09 04:50:26;;;;;;;6.03;5.00;;;15.60;99.90;;;;;;4974845;28;20541;-83
2022/07/09 04:52:52;;;;;;;8.02;5.43;;;15.70;99.90;;;;;;4973979;28;20023;-92
2022/07/09 04:55:19;;;;;;;7.93;5.50;;;15.60;99.90;;;;;;4973877;28;20026;-84
2022/07/09 04:57:45;;;;;;;9.95;5.07;;;;;;;;;;4973855;28;20037;-83
2022/07/09 05:00:11;;;;;;;8.18;5.38;;;15.80;99.90;;;;;;4973885;28;20035;-91
2022/07/09 05:02:38;;;;;;;9.73;5.47;;;15.80;99.90;;;;;;4974269;28;20030;-91
2022/07/09 05:05:06;;;;;;;7.90;5.30;;;15.80;99.90;;;;;;4972381;28;20455;-84
2022/07/09 05:07:35;;;;;;;7.00;5.03;;;15.80;99.90;;;;;;4974726;28;20046;-84
2022/07/09 05:10:01;;;;;;;8.60;5.70;;;15.80;99.90;;;;;;4974444;28;20105;-83
2022/07/09 05:12:30;;;;;;;8.57;5.75;;;15.80;99.90;;;;;;4973984;28;20023;-83
2022/07/09 05:14:56;;;;;;;8.40;5.78;;;;;;;;;;4973587;28;20027;-83
2022/07/09 05:17:23;;;;;;;6.57;5.30;;;;;;;;;;4973509;28;20395;-83
2022/07/09 05:19:48;;;;;;;10.02;5.90;;;16.00;99.90;;;;;;4973502;28;20026;-83
2022/07/09 05:22:14;;;;;;;9.90;7.15;;;16.00;99.90;;;;;;4973586;28;20022;-92
2022/07/09 05:24:40;;;;;;;13.45;8.85;;;16.10;99.90;;;;;;4988368;28;20101;-83
2022/07/09 05:27:08;;;;;;;14.20;9.57;;;;;;;;;;4988298;28;20035;-83
2022/07/09 05:29:34;;;;;;;12.68;9.60;;;;;;;;;;4973626;28;20029;-83
2022/07/09 05:32:00;;;;;;;13.73;8.52;;;16.10;99.90;;;;;;4988956;28;20037;-84
2022/07/09 05:34:25;;;;;;;12.55;9.18;;;16.10;99.90;;;;;;4988073;28;20035;-84
2022/07/09 05:36:57;;;;;;;11.77;9.02;;;16.10;99.90;;;;;;4973508;28;20031;-84
2022/07/09 05:39:23;;;;;;;13.07;8.77;;;16.10;99.90;;;;;;4973752;28;20043;-83
2022/07/09 05:41:49;;;;;;;11.60;8.13;;;16.20;99.90;;;;;;4973161;28;20599;-83
2022/07/09 05:44:15;;;;;;;15.18;9.63;;;16.30;99.90;;;;;;4973111;28;20026;-83
2022/07/09 05:46:41;;;;;;;14.02;8.38;;;16.40;99.90;;;;;;4973039;28;20042;-83
2022/07/09 05:49:07;;;;;;;14.07;9.95;;;16.50;99.90;;;;;;4971986;28;20030;-83
2022/07/09 05:51:33;;;;;;;16.85;9.57;;;16.50;99.90;;;;;;4974053;28;20046;-84
2022/07/09 05:53:59;;;;;;;15.02;11.30;;;16.50;99.90;;;;;;4973058;28;20022;-84
2022/07/09 05:56:24;;;;;;;16.27;10.40;;;16.20;99.90;;;;;;4973158;28;20238;-93
2022/07/09 05:58:50;;;;;;;18.15;11.40;;;;;;;;;;4973468;28;20081;-93
2022/07/09 06:01:16;;;;;;;16.83;10.90;;;16.50;99.90;;;;;;4972997;28;20027;-93
2022/07/09 06:03:42;;;;;;;17.33;10.93;;;16.60;99.90;;;;;;4973016;28;20026;-92
2022/07/09 06:06:09;;;;;;;15.43;11.27;;;;;;;;;;4972744;28;20031;-92
2022/07/09 06:08:35;;;;;;;15.23;10.45;;;16.50;99.90;;;;;;4974000;28;20035;-89
2022/07/09 06:11:02;;;;;;;15.00;9.30;;;16.60;99.90;;;;;;4973648;28;20049;-83
2022/07/09 06:13:28;;;;;;;11.45;8.60;;;16.70;99.90;;;;;;4971492;28;20454;-83
2022/07/09 06:15:53;;;;;;;14.00;8.30;;;16.80;99.90;;;;;;4972763;28;20026;-83
2022/07/09 06:18:19;;;;;;;11.43;7.88;;;16.90;99.90;;;;;;4971585;28;20023;-89
2022/07/09 06:20:45;;;;;;;9.73;7.00;;;17.00;99.90;;;;;;4972807;28;20126;-84
2022/07/09 06:23:12;;;;;;;11.35;7.50;;;17.10;99.90;;;;;;4971535;28;20026;-83
2022/07/09 06:25:38;;;;;;;12.07;6.18;;;17.10;99.90;;;;;;4972592;28;20089;-85
2022/07/09 06:28:04;;;;;;;7.57;6.00;;;17.20;99.90;;;;;;4974800;28;20069;-87
2022/07/09 06:30:31;;;;;;;11.85;6.88;;;17.20;99.90;;;;;;4977045;28;20103;-84
2022/07/09 06:32:56;;;;;;;11.15;6.13;;;17.30;99.90;;;;;;4977237;28;20356;-84
2022/07/09 06:35:23;;;;;;;46.20;8.32;;;17.30;99.90;;;;;;4972518;28;20025;-82
2022/07/09 06:37:48;;;;;;;10.82;6.25;;;17.40;99.90;;;;;;4972750;28;20076;-83
2022/07/09 06:40:14;;;;;;;9.07;6.25;;;17.40;99.90;;;;;;4974398;28;20026;-83
2022/07/09 06:42:40;;;;;;;9.35;5.90;;;17.50;99.90;;;;;;4976838;28;20027;-83
2022/07/09 06:45:07;;;;;;;14.52;6.10;;;17.60;99.90;;;;;;4973881;28;20058;-82
2022/07/09 06:47:33;;;;;;;11.73;5.85;;;17.60;99.90;;;;;;4976969;28;20026;-96
2022/07/09 06:49:59;;;;;;;11.00;5.97;;;;;;;;;;4977844;28;20094;-84
2022/07/09 06:52:25;;;;;;;7.10;5.18;;;17.80;99.90;;;;;;4987612;28;20057;-93
2022/07/09 06:54:50;;;;;;;11.82;5.50;;;17.90;99.90;;;;;;4974445;28;20030;-85
2022/07/09 06:57:17;;;;;;;6.35;4.55;;;18.00;99.90;;;;;;4977306;28;20023;-85
2022/07/09 06:59:45;;;;;;;10.05;4.90;;;18.00;99.90;;;;;;4981758;28;20023;-95
2022/07/09 07:02:11;;;;;;;10.32;4.70;;;18.10;99.90;;;;;;4975454;28;20045;-91
2022/07/09 07:04:38;;;;;;;7.63;4.80;;;;;;;;;;4976282;28;20035;-85
2022/07/09 07:07:05;;;;;;;7.32;4.63;;;18.40;99.90;;;;;;4973411;28;20062;-91
2022/07/09 07:09:30;;;;;;;7.68;4.50;;;18.40;99.90;;;;;;4976177;28;20027;-85
2022/07/09 07:11:56;;;;;;;7.07;5.18;;;18.40;99.90;;;;;;4970606;28;20031;-84
2022/07/09 07:14:22;;;;;;;8.68;4.45;;;18.50;99.90;;;;;;4972671;28;20023;-84
2022/07/09 07:16:48;;;;;;;8.50;3.92;;;18.60;99.90;;;;;;4988273;28;20475;-84
2022/07/09 07:19:14;;;;;;;9.43;4.43;;;18.60;99.90;;;;;;4975669;28;20019;-84
2022/07/09 07:21:42;;;;;;;11.95;4.30;;;18.70;99.90;;;;;;4975923;28;20035;-84
2022/07/09 07:24:08;;;;;;;7.07;4.40;;;18.80;99.90;;;;;;4975881;28;20031;-84
2022/07/09 07:26:34;;;;;;;14.20;4.32;;;18.80;99.90;;;;;;4970900;28;20447;-83
2022/07/09 07:29:00;;;;;;;7.38;4.05;;;18.90;99.90;;;;;;4973175;28;20034;-94
2022/07/09 07:31:26;;;;;;;7.35;3.72;;;19.00;99.90;;;;;;4963470;28;20403;-84
2022/07/09 07:33:52;;;;;;;9.02;3.97;;;19.10;99.90;;;;;;4957455;28;20026;-84
2022/07/09 07:36:18;;;;;;;8.05;3.70;;;19.20;99.90;;;;;;4964070;28;20023;-86
2022/07/09 07:38:47;;;;;;;10.75;3.95;;;19.30;99.90;;;;;;4971049;28;20040;-84
2022/07/09 07:41:13;;;;;;;9.50;3.88;;;19.40;99.90;;;;;;4982640;28;20391;-84
2022/07/09 07:43:40;;;;;;;7.72;3.88;;;19.40;99.90;;;;;;4976928;28;20125;-84
2022/07/09 07:46:06;;;;;;;5.45;3.33;;;;;;;;;;4979332;28;20101;-84
2022/07/09 07:48:32;;;;;;;5.90;3.47;;;19.60;99.90;;;;;;4973296;28;20044;-93
2022/07/09 07:50:57;;;;;;;7.28;3.75;;;19.80;99.90;;;;;;4971014;28;20467;-85
2022/07/09 07:53:23;;;;;;;7.13;3.67;;;19.80;99.90;;;;;;4970831;28;20034;-84
2022/07/09 07:55:49;;;;;;;7.28;3.55;;;;;;;;;;4971085;28;20019;-85
2022/07/09 07:58:15;;;;;;;6.50;3.53;;;20.00;99.90;;;;;;4975461;28;20037;-84
2022/07/09 08:00:41;;;;;;;5.75;3.42;;;20.00;99.90;;;;;;4973815;28;20023;-85
2022/07/09 08:03:07;;;;;;;7.00;3.33;;;;;;;;;;4975844;28;20027;-91
2022/07/09 08:05:34;;;;;;;8.38;3.60;;;;;;;;;;4973523;28;20065;-86
2022/07/09 08:08:00;;;;;;;6.18;3.10;;;;;;;;;;4970036;28;20061;-84
2022/07/09 08:10:26;;;;;;;6.60;3.33;;;;;;;;;;4972309;28;20066;-89
2022/07/09 08:12:52;;;;;;;4.35;3.05;;;;;;;;;;4971922;28;20026;-83
2022/07/09 08:15:18;;;;;;;6.18;3.20;;;20.60;99.90;;;;;;4969607;28;20399;-84
2022/07/09 08:17:44;;;;;;;4.32;3.20;;;20.80;99.90;;;;;;4971456;28;20022;-85
2022/07/09 08:20:10;;;;;;;9.00;3.25;;;20.90;99.90;;;;;;4971432;28;20081;-83
2022/07/09 08:22:36;;;;;;;6.53;3.00;;;20.90;99.90;;;;;;4970450;28;20432;-84
2022/07/09 08:25:03;;;;;;;6.38;3.17;;;21.10;99.90;;;;;;4968997;28;20584;-85
2022/07/09 08:27:29;;;;;;;6.43;3.28;;;21.10;99.90;;;;;;4970919;28;20114;-88
2022/07/09 08:29:55;;;;;;;7.75;3.35;;;21.10;99.90;;;;;;4970370;28;20023;-87
2022/07/09 08:32:20;;;;;;;6.22;3.53;;;21.20;99.90;;;;;;4970650;28;20034;-93
2022/07/09 08:34:46;;;;;;;6.50;3.10;;;21.20;99.90;;;;;;4970304;28;20034;-84
2022/07/09 08:37:12;;;;;;;12.40;3.22;;;21.40;99.90;;;;;;4971428;28;20018;-88
2022/07/09 08:39:37;;;;;;;9.43;3.30;;;21.60;99.90;;;;;;4969130;28;20027;-85
2022/07/09 08:42:09;;;;;;;5.60;2.72;;;21.60;99.90;;;;;;4970251;28;20205;-84
2022/07/09 08:44:38;;;;;;;4.97;3.17;;;21.70;99.90;;;;;;4970085;28;20026;-86
2022/07/09 08:47:05;;;;;;;6.90;2.70;;;22.00;99.90;;;;;;4970188;28;20362;-87
2022/07/09 08:49:31;;;;;;;6.20;3.05;;;21.90;99.90;;;;;;4970230;28;20019;-86
2022/07/09 08:51:57;;;;;;;4.80;2.78;;;21.90;99.90;;;;;;4970203;28;20039;-88
2022/07/09 08:54:23;;;;;;;4.68;2.67;;;22.10;99.90;;;;;;4970153;28;20045;-84
2022/07/09 08:56:52;;;;;;;7.35;2.85;;;22.30;99.90;;;;;;4968803;28;20077;-87
2022/07/09 08:59:18;;;;;;;4.00;2.65;;;22.30;99.90;;;;;;4970310;28;20023;-86
2022/07/09 09:01:44;;;;;;;8.65;3.05;;;22.50;99.90;;;;;;4971022;28;20030;-86
2022/07/09 09:04:10;;;;;;;3.10;2.50;;;22.40;99.90;;;;;;4970983;28;20483;-89
2022/07/09 09:06:38;;;;;;;3.65;2.67;;;22.40;99.90;;;;;;4970121;28;20070;-84
2022/07/09 09:09:03;;;;;;;5.70;2.90;;;22.60;99.90;;;;;;4970021;28;20027;-87
2022/07/09 09:11:31;;;;;;;3.53;2.45;;;22.70;99.90;;;;;;4970034;28;20035;-88
2022/07/09 09:13:57;;;;;;;7.38;3.25;;;22.90;99.90;;;;;;4968754;28;20034;-87
2022/07/09 09:16:23;;;;;;;4.25;2.50;;;23.00;99.90;;;;;;4970022;28;20030;-84
2022/07/09 09:18:51;;;;;;;4.72;2.38;;;22.90;99.90;;;;;;4970107;28;20023;-87
2022/07/09 09:21:20;;;;;;;4.50;2.38;;;22.80;99.90;;;;;;4970004;28;20023;-84
2022/07/09 09:23:48;;;;;;;4.53;2.20;;;23.00;99.90;;;;;;4960906;28;20071;-83
2022/07/09 09:26:19;;;;;;;4.93;2.45;;;23.10;99.90;;;;;;4955742;28;20039;-83
2022/07/09 09:28:46;;;;;;;3.58;2.10;;;23.10;99.90;;;;;;4966669;28;20763;-83
2022/07/09 09:31:46;;;;;;;3.60;2.20;;;23.20;99.90;;;;;;4964743;28;20034;-83
2022/07/09 09:34:14;;;;;;;4.70;2.13;;;23.40;99.90;;;;;;4970953;28;20281;-83
2022/07/09 09:36:41;;;;;;;;;;;23.40;99.90;;;;;;4976987;28;20023;-84
2022/07/09 09:39:23;;;;;;;5.10;2.20;;;23.40;99.90;;;;;;4965647;28;19976;-83
2022/07/09 09:42:13;;;;;;;4.63;2.03;;;23.50;99.90;;;;;;4956960;28;20086;-83
2022/07/09 09:44:41;;;;;;;2.55;2.20;;;23.50;99.90;;;;;;4953594;28;20034;-83
2022/07/09 09:47:07;;;;;;;4.90;2.40;;;23.50;99.90;;;;;;4954118;28;20446;-83
2022/07/09 09:49:34;;;;;;;5.53;2.50;;;23.50;99.90;;;;;;4952590;29;20057;-84
2022/07/09 09:52:08;;;;;;;3.30;2.40;;;23.60;99.90;;;;;;4953752;28;20031;-83
2022/07/09 09:54:39;;;;;;;6.78;2.08;;;23.60;99.90;;;;;;4953734;28;20058;-83
2022/07/09 09:57:10;;;;;;;4.75;2.20;;;23.70;99.90;;;;;;4953720;28;20031;-84
2022/07/09 09:59:44;;;;;;;5.18;2.40;;;23.80;99.90;;;;;;4953685;28;20087;-83
2022/07/09 10:02:10;;;;;;;8.20;2.50;;;23.90;99.90;;;;;;4954679;28;20114;-91
2022/07/09 10:04:43;;;;;;;6.95;3.20;;;24.10;99.90;;;;;;4959288;28;20032;-86
2022/07/09 10:07:12;;;;;;;8.27;2.60;;;24.10;99.90;;;;;;4967678;28;20063;-84
2022/07/09 10:09:37;;;;;;;3.67;2.38;;;24.20;99.90;;;;;;4967928;28;20348;-83
2022/07/09 10:12:03;;;;;;;7.43;2.47;;;24.20;99.90;;;;;;4960545;28;20031;-88
2022/07/09 10:14:33;;;;;;;4.78;2.72;;;24.40;99.90;;;;;;4955023;28;20058;-84
2022/07/09 10:17:15;;;;;;;4.10;2.55;;;24.20;99.90;;;;;;4953626;28;20023;-82
2022/07/09 10:20:04;;;;;;;6.07;2.75;;;24.30;99.90;;;;;;4954569;28;20030;-82
2022/07/09 10:22:40;;;;;;;8.65;2.50;;;24.20;99.90;;;;;;4952051;29;20031;-82
2022/07/09 10:25:07;;;;;;;10.33;2.80;;;24.20;99.90;;;;;;4953061;28;20098;-82
2022/07/09 10:27:49;;;;;;;4.18;2.42;;;24.50;99.80;;;;;;4952928;28;20035;-82
2022/07/09 10:30:29;;;;;;;3.75;2.60;;;24.50;99.90;;;;;;4953795;28;20030;-82
2022/07/09 10:33:13;;;;;;;7.43;2.70;;;24.50;98.10;;;;;;4953065;28;20130;-88
2022/07/09 10:35:45;;;;;;;4.10;2.50;;;24.50;99.40;;;;;;4952967;28;20429;-82
2022/07/09 10:38:12;;;;;;;7.30;2.85;;;24.70;98.40;;;;;;4952941;28;20488;-82
2022/07/09 10:40:43;;;;;;;6.28;2.45;;;24.80;98.50;;;;;;4951118;28;20027;-82
2022/07/09 10:43:10;;;;;;;3.97;2.30;;;24.20;98.30;;;;;;4952626;28;20115;-82
2022/07/09 10:45:40;;;;;;;4.50;2.60;;;24.90;96.20;;;;;;4952689;28;20393;-82
2022/07/09 10:48:07;;;;;;;4.07;2.30;;;25.00;97.60;;;;;;4952602;28;20091;-82
2022/07/09 10:50:38;;;;;;;;;;;25.10;95.60;;;;;;4953129;28;20035;-82
2022/07/09 10:53:04;;;;;;;7.90;2.72;;;25.10;93.80;;;;;;4952599;28;19907;-82
2022/07/09 10:55:30;;;;;;;3.65;2.50;;;25.00;93.60;;;;;;4951285;29;20035;-82
2022/07/09 10:57:57;;;;;;;3.55;3.08;;;24.90;92.40;;;;;;4952539;28;20051;-82
2022/07/09 11:00:28;;;;;;;5.28;2.72;;;25.10;94.20;;;;;;4952466;28;20030;-82
2022/07/09 11:03:02;;;;;;;6.80;2.65;;;25.10;93.10;;;;;;4952493;28;20027;-82
2022/07/09 11:05:30;;;;;;;5.60;2.45;;;25.40;94.00;;;;;;4952214;28;20031;-82
2022/07/09 11:08:01;;;;;;;6.75;2.58;;;25.10;90.20;;;;;;4952341;28;20419;-81
2022/07/09 11:10:28;;;;;;;5.93;2.70;;;25.30;92.70;;;;;;4950955;29;20043;-82
2022/07/09 11:12:55;;;;;;;8.82;2.45;;;25.30;93.80;;;;;;4952328;28;20030;-82
2022/07/09 11:15:22;;;;;;;3.65;2.67;;;25.40;94.40;;;;;;4952727;28;20074;-82
2022/07/09 11:18:00;;;;;;;3.40;2.42;;;25.40;93.90;;;;;;4951557;28;20047;-82
2022/07/09 11:20:31;;;;;;;4.40;2.55;;;25.50;93.10;;;;;;4952144;28;20065;-82
2022/07/09 11:22:59;;;;;;;3.20;2.33;;;25.60;93.30;;;;;;4952046;28;20024;-83
2022/07/09 11:25:26;;;;;;;4.05;2.53;;;25.60;93.30;;;;;;4951932;28;20040;-81
2022/07/09 11:27:54;;;;;;;5.68;2.40;;;25.60;92.10;;;;;;4951841;28;20034;-82
2022/07/09 11:30:20;;;;;;;152.23;14.10;;;25.60;87.40;;;;;;4952688;28;20055;-82
2022/07/09 11:32:46;;;;;;;4.32;2.30;;;25.50;84.80;;;;;;4951844;28;20062;-87
2022/07/09 11:35:12;;;;;;;6.13;2.35;;;26.70;88.80;;;;;;4951905;28;20337;-84
2022/07/09 11:37:44;;;;;;;5.63;2.50;;;25.50;89.10;;;;;;4951800;28;20027;-82
2022/07/09 11:40:19;;;;;;;4.35;2.20;;;25.60;91.20;;;;;;4951551;28;20155;-82
2022/07/09 11:42:45;;;;;;;4.93;2.10;;;25.70;86.70;;;;;;4951716;28;20480;-86
2022/07/09 11:45:11;;;;;;;5.20;2.28;;;25.80;82.10;;;;;;4951643;28;20059;-82
2022/07/09 11:47:39;;;;;;;5.05;3.28;;;25.70;83.00;;;;;;4951649;28;20054;-82
2022/07/09 11:50:11;;;;;;;;;;;25.50;85.20;;;;;;4951994;28;20542;-81
2022/07/09 11:52:44;;;;;;;6.28;2.40;;;25.70;87.40;;;;;;4951450;28;19997;-82
2022/07/09 11:55:13;;;;;;;4.57;2.65;;;25.70;81.00;;;;;;4950224;29;20035;-88
2022/07/09 11:57:49;;;;;;;10.35;2.80;;;25.80;82.00;;;;;;4951531;28;20023;-82
2022/07/09 12:00:22;;;;;;;7.55;3.58;;;25.90;84.60;;;;;;4951515;28;20031;-84
2022/07/09 12:02:48;;;;;;;8.88;2.60;;;25.90;83.60;;;;;;4951710;28;20031;-83
2022/07/09 12:05:32;;;;;;;9.45;2.13;;;25.70;78.60;;;;;;4951295;28;20027;-83
2022/07/09 12:08:00;;;;;;;4.68;2.20;;;26.00;82.10;;;;;;4951300;28;20082;-83
2022/07/09 12:10:30;;;;;;;5.00;2.53;;;26.10;77.80;;;;;;4951413;28;20016;-83
2022/07/09 12:12:57;;;;;;;8.02;3.33;;;26.00;76.70;;;;;;4951364;28;20080;-83
2022/07/09 12:15:23;;;;;;;3.40;2.30;;;26.10;77.20;;;;;;4952094;28;20468;-83
2022/07/09 12:17:57;;;;;;;5.20;2.30;;;26.00;79.10;;;;;;4951286;28;20031;-82
2022/07/09 12:20:26;;;;;;;3.97;2.40;;;26.10;79.00;;;;;;4952083;28;20055;-90
2022/07/09 12:22:52;;;;;;;5.82;2.20;;;26.20;81.10;;;;;;4952046;28;20110;-82
2022/07/09 12:25:19;;;;;;;4.03;2.22;;;26.20;77.70;;;;;;4951047;28;20035;-83
2022/07/09 12:27:45;;;;;;;2.15;1.90;;;26.20;74.50;;;;;;4951011;28;20278;-82
2022/07/09 12:30:12;;;;;;;3.00;2.10;;;26.20;79.30;;;;;;4951057;28;20034;-82
2022/07/09 12:32:39;;;;;;;3.80;2.10;;;26.30;73.90;;;;;;4951109;28;20051;-83
2022/07/09 12:35:05;;;;;;;3.58;2.20;;;26.30;72.40;;;;;;4951074;28;20102;-82
2022/07/09 12:37:30;;;;;;;5.82;2.22;;;26.30;72.70;;;;;;4951736;28;20086;-89
2022/07/09 12:39:56;;;;;;;6.15;2.10;;;26.50;75.00;;;;;;4950708;29;20035;-84
2022/07/09 12:42:22;;;;;;;4.80;2.20;;;26.60;78.10;;;;;;4952295;28;20024;-88
2022/07/09 12:44:48;;;;;;;3.30;2.17;;;26.60;74.00;;;;;;4951193;28;20027;-82
2022/07/09 12:47:14;;;;;;;4.63;2.50;;;26.50;70.00;;;;;;4952309;28;20031;-82
2022/07/09 12:49:40;;;;;;;2.75;2.17;;;26.50;70.60;;;;;;4952495;28;20003;-82
2022/07/09 12:52:07;;;;;;;4.03;2.17;;;26.60;68.80;;;;;;4951606;28;20503;-82
2022/07/09 12:54:32;;;;;;;3.90;2.10;;;26.60;68.10;;;;;;4952521;28;20037;-82